Port Angeles, WA

1:21 PM PST on February 10, 2016 (GMT -0800)
Top of Mt. Pleasant Rd. | | Change Station
CLOSE
Current Station
Personal Weather Station
Location: Port Angeles, WA
Elevation: 1237 ft
Nearby Weather Stations

Elev 1237 ft 48.04 °N, 123.36 °W | Updated 1 second ago

Overcast
Overcast
52.2 °F
Feels Like 52.2 °F
N
0.0
Wind Variable Wind from SSE
Gusts 0.0 mph

Today
High -- | Low -- °F
--% Chance of Precip.
Yesterday
High -- | Low -- °F
Precip. -- in
Pressure 30.17 in
Visibility 8.0 miles
Clouds Few 7000 ft
Dew Point 46 °F
Humidity 78%
Rainfall 0.00 in
Snow Depth Not available.
7:28 AM 5:27 PM
Waxing Crescent, 7% visible
METAR KCLM 102053Z AUTO 09007KT 8SM FEW070 11/07 A3016 RMK AO2 SLP215 60000 T01110072 51011
Pressure 30.17 in
Visibility 8.0 miles
Clouds Few 7000 ft
Dew Point 46 °F
Humidity 78%
Rainfall 0.00 in
Snow Depth Not available.
7:28 AM 5:27 PM
Waxing Crescent, 7% visible
METAR KCLM 102053Z AUTO 09007KT 8SM FEW070 11/07 A3016 RMK AO2 SLP215 60000 T01110072 51011

10-Day Weather Forecast

Almanac

Astronomy

Feb. 10, 2016 Rise Set
Actual Time
Civil Twilight
Nautical Twilight
Astronomical Twilight
Moon
Length of Visible Light
Length of Day
Tomorrow will be .
, % of the Moon is Illuminated

Today's Extremes

State Highs State Lows

Community

WunderPhotos

Upload Photos

1,891,949 photos uploaded!

WunderBlog® & News

Nearby

Air Quality

  Air Quality AQ Index Pollutant
Not available.

Snow Depth

Station Depth Elevation

Earthquake Activity

City Distance Mag. Time & Date
Minimum magnitude displayed is 2.5.

Coastal Water Temperatures

Place Temperature

Stations

Nearby Weather Stations

Station Location Temp. Windchill Dew Point Humidity Wind Precip. Elev Updated Type
                   

Watches & Warnings

There are currently no watches in effect.